sensor_id;sensor_type;location;lat;lon;timestamp;P1;durP1;ratioP1;P2;durP2;ratioP2
54705;SDS011;40603;48.774;8.916;2022-08-21T00:00:01;91.10;;;85.60;;
54705;SDS011;40603;48.774;8.916;2022-08-21T00:02:29;84.45;;;79.38;;
54705;SDS011;40603;48.774;8.916;2022-08-21T00:04:54;63.05;;;59.03;;
54705;SDS011;40603;48.774;8.916;2022-08-21T00:07:20;102.70;;;96.47;;
54705;SDS011;40603;48.774;8.916;2022-08-21T00:09:46;103.30;;;96.80;;
54705;SDS011;40603;48.774;8.916;2022-08-21T00:12:11;95.97;;;90.30;;
54705;SDS011;40603;48.774;8.916;2022-08-21T00:14:37;67.05;;;62.78;;
54705;SDS011;40603;48.774;8.916;2022-08-21T00:17:03;56.72;;;53.03;;
54705;SDS011;40603;48.774;8.916;2022-08-21T00:19:29;59.80;;;55.80;;
54705;SDS011;40603;48.774;8.916;2022-08-21T00:21:55;40.35;;;37.63;;
54705;SDS011;40603;48.774;8.916;2022-08-21T00:24:21;80.40;;;75.15;;
54705;SDS011;40603;48.774;8.916;2022-08-21T00:26:47;39.25;;;36.63;;
54705;SDS011;40603;48.774;8.916;2022-08-21T00:29:13;32.28;;;30.13;;
54705;SDS011;40603;48.774;8.916;2022-08-21T00:31:39;38.65;;;36.08;;
54705;SDS011;40603;48.774;8.916;2022-08-21T00:34:05;80.10;;;75.20;;
54705;SDS011;40603;48.774;8.916;2022-08-21T00:36:32;57.83;;;53.97;;
54705;SDS011;40603;48.774;8.916;2022-08-21T00:38:58;89.60;;;84.03;;
54705;SDS011;40603;48.774;8.916;2022-08-21T00:41:24;95.88;;;89.82;;
54705;SDS011;40603;48.774;8.916;2022-08-21T00:43:49;94.80;;;88.80;;
54705;SDS011;40603;48.774;8.916;2022-08-21T00:46:16;74.72;;;70.30;;
54705;SDS011;40603;48.774;8.916;2022-08-21T00:48:41;85.90;;;80.75;;
54705;SDS011;40603;48.774;8.916;2022-08-21T00:51:08;54.17;;;50.50;;
54705;SDS011;40603;48.774;8.916;2022-08-21T00:53:37;57.15;;;53.63;;
54705;SDS011;40603;48.774;8.916;2022-08-21T00:56:03;35.13;;;32.95;;
54705;SDS011;40603;48.774;8.916;2022-08-21T00:58:29;42.45;;;39.85;;
54705;SDS011;40603;48.774;8.916;2022-08-21T01:00:57;32.45;;;30.15;;
54705;SDS011;40603;48.774;8.916;2022-08-21T01:03:24;54.13;;;50.78;;
54705;SDS011;40603;48.774;8.916;2022-08-21T01:05:50;66.25;;;62.17;;
54705;SDS011;40603;48.774;8.916;2022-08-21T01:08:16;74.63;;;69.85;;
54705;SDS011;40603;48.774;8.916;2022-08-21T01:10:42;66.78;;;62.60;;
54705;SDS011;40603;48.774;8.916;2022-08-21T01:13:09;73.45;;;68.75;;
54705;SDS011;40603;48.774;8.916;2022-08-21T01:15:37;80.68;;;75.97;;
54705;SDS011;40603;48.774;8.916;2022-08-21T01:18:04;95.75;;;90.05;;
54705;SDS011;40603;48.774;8.916;2022-08-21T01:20:32;52.25;;;48.97;;
54705;SDS011;40603;48.774;8.916;2022-08-21T01:23:00;62.30;;;58.40;;
54705;SDS011;40603;48.774;8.916;2022-08-21T01:25:25;45.55;;;42.72;;
54705;SDS011;40603;48.774;8.916;2022-08-21T01:27:51;123.32;;;115.68;;
54705;SDS011;40603;48.774;8.916;2022-08-21T01:30:18;63.40;;;59.60;;
54705;SDS011;40603;48.774;8.916;2022-08-21T01:32:46;51.97;;;48.67;;
54705;SDS011;40603;48.774;8.916;2022-08-21T01:35:12;59.35;;;55.80;;
54705;SDS011;40603;48.774;8.916;2022-08-21T01:37:40;78.18;;;73.43;;
54705;SDS011;40603;48.774;8.916;2022-08-21T01:40:06;80.18;;;75.35;;
54705;SDS011;40603;48.774;8.916;2022-08-21T01:42:33;144.15;;;135.57;;
54705;SDS011;40603;48.774;8.916;2022-08-21T01:44:58;122.35;;;114.97;;
54705;SDS011;40603;48.774;8.916;2022-08-21T01:47:23;110.78;;;104.00;;
54705;SDS011;40603;48.774;8.916;2022-08-21T01:49:49;117.90;;;111.03;;
54705;SDS011;40603;48.774;8.916;2022-08-21T01:52:14;59.92;;;56.20;;
54705;SDS011;40603;48.774;8.916;2022-08-21T01:54:40;102.50;;;96.40;;
54705;SDS011;40603;48.774;8.916;2022-08-21T01:57:05;96.22;;;90.53;;
54705;SDS011;40603;48.774;8.916;2022-08-21T01:59:31;92.93;;;87.25;;
54705;SDS011;40603;48.774;8.916;2022-08-21T02:01:57;75.60;;;70.90;;
54705;SDS011;40603;48.774;8.916;2022-08-21T02:04:22;46.47;;;43.35;;
54705;SDS011;40603;48.774;8.916;2022-08-21T02:06:48;44.28;;;41.55;;
54705;SDS011;40603;48.774;8.916;2022-08-21T02:09:14;50.08;;;46.65;;
54705;SDS011;40603;48.774;8.916;2022-08-21T02:11:39;68.50;;;64.47;;
54705;SDS011;40603;48.774;8.916;2022-08-21T02:14:06;57.95;;;54.53;;
54705;SDS011;40603;48.774;8.916;2022-08-21T02:16:32;21.90;;;20.50;;
54705;SDS011;40603;48.774;8.916;2022-08-21T02:18:58;42.88;;;40.15;;
54705;SDS011;40603;48.774;8.916;2022-08-21T02:21:23;49.58;;;46.42;;
54705;SDS011;40603;48.774;8.916;2022-08-21T02:23:48;129.68;;;121.97;;
54705;SDS011;40603;48.774;8.916;2022-08-21T02:26:14;68.30;;;64.03;;
54705;SDS011;40603;48.774;8.916;2022-08-21T02:28:39;41.30;;;38.53;;
54705;SDS011;40603;48.774;8.916;2022-08-21T02:31:05;43.42;;;40.83;;
54705;SDS011;40603;48.774;8.916;2022-08-21T02:33:30;35.13;;;32.72;;
54705;SDS011;40603;48.774;8.916;2022-08-21T02:35:56;37.72;;;35.35;;
54705;SDS011;40603;48.774;8.916;2022-08-21T02:38:23;35.33;;;33.00;;
54705;SDS011;40603;48.774;8.916;2022-08-21T02:40:52;42.22;;;39.83;;
54705;SDS011;40603;48.774;8.916;2022-08-21T02:43:18;25.90;;;24.35;;
54705;SDS011;40603;48.774;8.916;2022-08-21T02:45:45;23.30;;;21.95;;
54705;SDS011;40603;48.774;8.916;2022-08-21T02:48:12;24.70;;;23.15;;
54705;SDS011;40603;48.774;8.916;2022-08-21T02:50:43;29.35;;;27.50;;
54705;SDS011;40603;48.774;8.916;2022-08-21T02:53:12;14.60;;;13.63;;
54705;SDS011;40603;48.774;8.916;2022-08-21T02:55:41;13.95;;;12.82;;
54705;SDS011;40603;48.774;8.916;2022-08-21T02:58:08;12.63;;;11.25;;
54705;SDS011;40603;48.774;8.916;2022-08-21T03:00:34;47.97;;;45.00;;
54705;SDS011;40603;48.774;8.916;2022-08-21T03:03:00;22.77;;;21.10;;
54705;SDS011;40603;48.774;8.916;2022-08-21T03:05:26;40.42;;;37.95;;
54705;SDS011;40603;48.774;8.916;2022-08-21T03:07:52;17.05;;;15.88;;
54705;SDS011;40603;48.774;8.916;2022-08-21T03:10:18;47.80;;;44.95;;
54705;SDS011;40603;48.774;8.916;2022-08-21T03:12:45;40.72;;;38.35;;
54705;SDS011;40603;48.774;8.916;2022-08-21T03:15:11;46.72;;;43.75;;
54705;SDS011;40603;48.774;8.916;2022-08-21T03:17:38;69.50;;;65.45;;
54705;SDS011;40603;48.774;8.916;2022-08-21T03:20:04;61.58;;;58.10;;
54705;SDS011;40603;48.774;8.916;2022-08-21T03:22:30;77.53;;;72.88;;
54705;SDS011;40603;48.774;8.916;2022-08-21T03:24:55;55.47;;;52.30;;
54705;SDS011;40603;48.774;8.916;2022-08-21T03:27:22;75.22;;;70.88;;
54705;SDS011;40603;48.774;8.916;2022-08-21T03:29:47;68.72;;;64.60;;
54705;SDS011;40603;48.774;8.916;2022-08-21T03:32:12;41.70;;;39.20;;
54705;SDS011;40603;48.774;8.916;2022-08-21T03:34:38;44.38;;;41.80;;
54705;SDS011;40603;48.774;8.916;2022-08-21T03:37:07;69.45;;;65.22;;
54705;SDS011;40603;48.774;8.916;2022-08-21T03:39:33;66.88;;;62.95;;
54705;SDS011;40603;48.774;8.916;2022-08-21T03:41:58;93.32;;;87.82;;
54705;SDS011;40603;48.774;8.916;2022-08-21T03:44:24;16.90;;;15.52;;
54705;SDS011;40603;48.774;8.916;2022-08-21T03:46:50;72.75;;;68.57;;
54705;SDS011;40603;48.774;8.916;2022-08-21T03:49:15;71.80;;;67.63;;
54705;SDS011;40603;48.774;8.916;2022-08-21T03:51:41;85.22;;;80.25;;
54705;SDS011;40603;48.774;8.916;2022-08-21T03:54:06;90.75;;;85.30;;
54705;SDS011;40603;48.774;8.916;2022-08-21T03:56:31;71.47;;;66.78;;
54705;SDS011;40603;48.774;8.916;2022-08-21T03:58:57;74.00;;;69.35;;
54705;SDS011;40603;48.774;8.916;2022-08-21T04:01:22;75.88;;;70.82;;
54705;SDS011;40603;48.774;8.916;2022-08-21T04:03:47;82.63;;;77.40;;
54705;SDS011;40603;48.774;8.916;2022-08-21T04:06:13;81.22;;;76.10;;
54705;SDS011;40603;48.774;8.916;2022-08-21T04:08:38;90.45;;;84.78;;
54705;SDS011;40603;48.774;8.916;2022-08-21T04:11:04;106.47;;;100.38;;
54705;SDS011;40603;48.774;8.916;2022-08-21T04:13:30;98.28;;;92.38;;
54705;SDS011;40603;48.774;8.916;2022-08-21T04:15:56;78.88;;;73.85;;
54705;SDS011;40603;48.774;8.916;2022-08-21T04:18:23;41.70;;;38.83;;
54705;SDS011;40603;48.774;8.916;2022-08-21T04:20:49;44.30;;;41.25;;
54705;SDS011;40603;48.774;8.916;2022-08-21T04:23:17;39.53;;;37.05;;
54705;SDS011;40603;48.774;8.916;2022-08-21T04:25:43;24.10;;;22.13;;
54705;SDS011;40603;48.774;8.916;2022-08-21T04:28:08;21.17;;;19.73;;
54705;SDS011;40603;48.774;8.916;2022-08-21T04:30:33;40.33;;;37.65;;
54705;SDS011;40603;48.774;8.916;2022-08-21T04:32:59;48.75;;;45.75;;
54705;SDS011;40603;48.774;8.916;2022-08-21T04:35:24;48.50;;;45.50;;
54705;SDS011;40603;48.774;8.916;2022-08-21T04:37:51;71.22;;;66.75;;
54705;SDS011;40603;48.774;8.916;2022-08-21T04:40:17;78.10;;;73.63;;
54705;SDS011;40603;48.774;8.916;2022-08-21T04:42:47;60.72;;;57.17;;
54705;SDS011;40603;48.774;8.916;2022-08-21T04:45:17;50.60;;;47.55;;
54705;SDS011;40603;48.774;8.916;2022-08-21T04:48:10;34.45;;;32.25;;
54705;SDS011;40603;48.774;8.916;2022-08-21T04:50:47;71.60;;;67.15;;
54705;SDS011;40603;48.774;8.916;2022-08-21T04:53:24;60.88;;;57.25;;
54705;SDS011;40603;48.774;8.916;2022-08-21T04:55:56;29.13;;;27.20;;
54705;SDS011;40603;48.774;8.916;2022-08-21T04:58:23;32.20;;;30.25;;
54705;SDS011;40603;48.774;8.916;2022-08-21T05:00:51;48.67;;;45.65;;
54705;SDS011;40603;48.774;8.916;2022-08-21T05:03:20;42.00;;;39.20;;
54705;SDS011;40603;48.774;8.916;2022-08-21T05:05:46;66.03;;;62.05;;
54705;SDS011;40603;48.774;8.916;2022-08-21T05:08:12;84.38;;;79.68;;
54705;SDS011;40603;48.774;8.916;2022-08-21T05:10:39;77.53;;;72.65;;
54705;SDS011;40603;48.774;8.916;2022-08-21T05:13:05;66.45;;;62.35;;
54705;SDS011;40603;48.774;8.916;2022-08-21T05:15:31;69.93;;;66.00;;
54705;SDS011;40603;48.774;8.916;2022-08-21T05:17:57;81.95;;;77.18;;
54705;SDS011;40603;48.774;8.916;2022-08-21T05:20:22;74.18;;;69.90;;
54705;SDS011;40603;48.774;8.916;2022-08-21T05:22:47;59.60;;;55.97;;
54705;SDS011;40603;48.774;8.916;2022-08-21T05:25:13;90.85;;;85.40;;
54705;SDS011;40603;48.774;8.916;2022-08-21T05:27:38;93.55;;;88.30;;
54705;SDS011;40603;48.774;8.916;2022-08-21T05:30:04;96.72;;;91.07;;
54705;SDS011;40603;48.774;8.916;2022-08-21T05:32:33;59.45;;;55.92;;
54705;SDS011;40603;48.774;8.916;2022-08-21T05:35:00;79.35;;;74.70;;
54705;SDS011;40603;48.774;8.916;2022-08-21T05:37:25;83.20;;;78.03;;
54705;SDS011;40603;48.774;8.916;2022-08-21T05:39:50;106.40;;;100.15;;
54705;SDS011;40603;48.774;8.916;2022-08-21T05:42:15;149.95;;;140.38;;
54705;SDS011;40603;48.774;8.916;2022-08-21T05:44:41;158.93;;;148.98;;
54705;SDS011;40603;48.774;8.916;2022-08-21T05:47:08;170.75;;;160.20;;
54705;SDS011;40603;48.774;8.916;2022-08-21T05:49:34;218.75;;;204.05;;
54705;SDS011;40603;48.774;8.916;2022-08-21T05:52:00;144.68;;;136.40;;
54705;SDS011;40603;48.774;8.916;2022-08-21T05:54:25;196.85;;;184.82;;
54705;SDS011;40603;48.774;8.916;2022-08-21T05:56:51;160.70;;;150.90;;
54705;SDS011;40603;48.774;8.916;2022-08-21T05:59:16;134.52;;;126.68;;
54705;SDS011;40603;48.774;8.916;2022-08-21T06:01:41;187.15;;;175.48;;
54705;SDS011;40603;48.774;8.916;2022-08-21T06:04:07;193.60;;;181.02;;
54705;SDS011;40603;48.774;8.916;2022-08-21T06:06:32;158.38;;;148.73;;
54705;SDS011;40603;48.774;8.916;2022-08-21T06:08:58;108.28;;;101.72;;
54705;SDS011;40603;48.774;8.916;2022-08-21T06:11:23;122.88;;;115.60;;
54705;SDS011;40603;48.774;8.916;2022-08-21T06:13:49;121.57;;;114.50;;
54705;SDS011;40603;48.774;8.916;2022-08-21T06:16:15;130.05;;;122.60;;
54705;SDS011;40603;48.774;8.916;2022-08-21T06:18:41;137.63;;;129.52;;
54705;SDS011;40603;48.774;8.916;2022-08-21T06:21:07;162.65;;;152.75;;
54705;SDS011;40603;48.774;8.916;2022-08-21T06:23:33;146.10;;;137.75;;
54705;SDS011;40603;48.774;8.916;2022-08-21T06:26:00;128.10;;;120.32;;
54705;SDS011;40603;48.774;8.916;2022-08-21T06:28:26;136.70;;;128.30;;
54705;SDS011;40603;48.774;8.916;2022-08-21T06:30:51;129.50;;;121.30;;
54705;SDS011;40603;48.774;8.916;2022-08-21T06:33:16;128.05;;;120.32;;
54705;SDS011;40603;48.774;8.916;2022-08-21T06:35:41;169.82;;;159.68;;
54705;SDS011;40603;48.774;8.916;2022-08-21T06:38:07;136.75;;;128.25;;
54705;SDS011;40603;48.774;8.916;2022-08-21T06:40:33;218.15;;;203.70;;
54705;SDS011;40603;48.774;8.916;2022-08-21T06:43:05;148.07;;;139.23;;
54705;SDS011;40603;48.774;8.916;2022-08-21T06:45:31;202.27;;;189.27;;
54705;SDS011;40603;48.774;8.916;2022-08-21T06:47:57;291.27;;;271.25;;
54705;SDS011;40603;48.774;8.916;2022-08-21T06:50:22;202.63;;;189.73;;
54705;SDS011;40603;48.774;8.916;2022-08-21T06:52:47;162.30;;;152.60;;
54705;SDS011;40603;48.774;8.916;2022-08-21T06:55:13;140.57;;;131.80;;
54705;SDS011;40603;48.774;8.916;2022-08-21T06:57:38;125.22;;;117.55;;
54705;SDS011;40603;48.774;8.916;2022-08-21T07:00:04;127.22;;;119.22;;
54705;SDS011;40603;48.774;8.916;2022-08-21T07:02:30;167.68;;;156.52;;
54705;SDS011;40603;48.774;8.916;2022-08-21T07:04:55;178.68;;;167.02;;
54705;SDS011;40603;48.774;8.916;2022-08-21T07:07:20;200.18;;;187.20;;
54705;SDS011;40603;48.774;8.916;2022-08-21T07:09:46;128.13;;;119.90;;
54705;SDS011;40603;48.774;8.916;2022-08-21T07:12:11;128.52;;;120.32;;
54705;SDS011;40603;48.774;8.916;2022-08-21T07:14:37;123.00;;;115.18;;
54705;SDS011;40603;48.774;8.916;2022-08-21T07:17:02;110.68;;;103.78;;
54705;SDS011;40603;48.774;8.916;2022-08-21T07:19:28;118.50;;;111.30;;
54705;SDS011;40603;48.774;8.916;2022-08-21T07:21:54;104.72;;;97.80;;
54705;SDS011;40603;48.774;8.916;2022-08-21T07:24:22;52.65;;;49.13;;
54705;SDS011;40603;48.774;8.916;2022-08-21T07:26:48;30.00;;;27.67;;
54705;SDS011;40603;48.774;8.916;2022-08-21T07:29:13;30.00;;;27.98;;
54705;SDS011;40603;48.774;8.916;2022-08-21T07:31:39;29.60;;;26.92;;
54705;SDS011;40603;48.774;8.916;2022-08-21T07:34:04;19.02;;;17.65;;
54705;SDS011;40603;48.774;8.916;2022-08-21T07:36:30;18.45;;;16.75;;
54705;SDS011;40603;48.774;8.916;2022-08-21T07:38:55;17.65;;;16.23;;
54705;SDS011;40603;48.774;8.916;2022-08-21T07:41:22;14.38;;;13.10;;
54705;SDS011;40603;48.774;8.916;2022-08-21T07:43:49;11.00;;;7.22;;
54705;SDS011;40603;48.774;8.916;2022-08-21T07:46:14;10.65;;;8.52;;
54705;SDS011;40603;48.774;8.916;2022-08-21T07:48:40;12.02;;;7.75;;
54705;SDS011;40603;48.774;8.916;2022-08-21T07:51:09;11.23;;;6.95;;
54705;SDS011;40603;48.774;8.916;2022-08-21T07:53:36;10.65;;;5.85;;
54705;SDS011;40603;48.774;8.916;2022-08-21T07:56:03;11.13;;;5.68;;
54705;SDS011;40603;48.774;8.916;2022-08-21T07:58:29;11.55;;;6.07;;
54705;SDS011;40603;48.774;8.916;2022-08-21T08:00:55;11.38;;;8.38;;
54705;SDS011;40603;48.774;8.916;2022-08-21T08:03:20;7.45;;;4.57;;
54705;SDS011;40603;48.774;8.916;2022-08-21T08:05:45;6.35;;;3.50;;
54705;SDS011;40603;48.774;8.916;2022-08-21T08:08:11;13.73;;;4.82;;
54705;SDS011;40603;48.774;8.916;2022-08-21T08:10:36;9.55;;;4.63;;
54705;SDS011;40603;48.774;8.916;2022-08-21T08:13:02;7.25;;;3.25;;
54705;SDS011;40603;48.774;8.916;2022-08-21T08:15:28;11.27;;;3.75;;
54705;SDS011;40603;48.774;8.916;2022-08-21T08:17:53;8.68;;;3.03;;
54705;SDS011;40603;48.774;8.916;2022-08-21T08:20:20;7.30;;;3.10;;
54705;SDS011;40603;48.774;8.916;2022-08-21T08:22:46;6.55;;;2.80;;
54705;SDS011;40603;48.774;8.916;2022-08-21T08:25:12;10.05;;;3.20;;
54705;SDS011;40603;48.774;8.916;2022-08-21T08:27:38;8.52;;;3.10;;
54705;SDS011;40603;48.774;8.916;2022-08-21T08:30:04;7.38;;;3.38;;
54705;SDS011;40603;48.774;8.916;2022-08-21T08:32:30;11.43;;;3.17;;
54705;SDS011;40603;48.774;8.916;2022-08-21T08:34:55;9.45;;;3.03;;
54705;SDS011;40603;48.774;8.916;2022-08-21T08:37:21;6.00;;;2.45;;
54705;SDS011;40603;48.774;8.916;2022-08-21T08:39:46;6.43;;;2.40;;
54705;SDS011;40603;48.774;8.916;2022-08-21T08:42:24;7.28;;;2.75;;
54705;SDS011;40603;48.774;8.916;2022-08-21T08:45:26;7.07;;;2.58;;
54705;SDS011;40603;48.774;8.916;2022-08-21T08:47:47;9.23;;;2.83;;
54705;SDS011;40603;48.774;8.916;2022-08-21T08:50:17;4.63;;;2.33;;
54705;SDS011;40603;48.774;8.916;2022-08-21T08:52:51;7.07;;;3.30;;
54705;SDS011;40603;48.774;8.916;2022-08-21T08:55:32;7.93;;;2.42;;
54705;SDS011;40603;48.774;8.916;2022-08-21T08:58:00;10.77;;;2.90;;
54705;SDS011;40603;48.774;8.916;2022-08-21T09:00:27;8.15;;;3.00;;
54705;SDS011;40603;48.774;8.916;2022-08-21T09:02:55;6.78;;;3.25;;
54705;SDS011;40603;48.774;8.916;2022-08-21T09:13:46;9.63;;;2.65;;
54705;SDS011;40603;48.774;8.916;2022-08-21T09:19:11;12.23;;;2.78;;
54705;SDS011;40603;48.774;8.916;2022-08-21T09:24:35;8.88;;;3.03;;
54705;SDS011;40603;48.774;8.916;2022-08-21T09:27:12;7.20;;;2.72;;
54705;SDS011;40603;48.774;8.916;2022-08-21T09:29:40;4.70;;;2.22;;
54705;SDS011;40603;48.774;8.916;2022-08-21T09:32:14;7.60;;;2.28;;
54705;SDS011;40603;48.774;8.916;2022-08-21T09:34:57;4.68;;;2.17;;
54705;SDS011;40603;48.774;8.916;2022-08-21T09:37:25;4.72;;;2.47;;
54705;SDS011;40603;48.774;8.916;2022-08-21T09:39:53;6.00;;;2.20;;
54705;SDS011;40603;48.774;8.916;2022-08-21T09:42:27;7.28;;;2.58;;
54705;SDS011;40603;48.774;8.916;2022-08-21T09:45:05;7.82;;;2.28;;
54705;SDS011;40603;48.774;8.916;2022-08-21T09:47:33;5.07;;;2.55;;
54705;SDS011;40603;48.774;8.916;2022-08-21T09:50:07;6.38;;;2.50;;
54705;SDS011;40603;48.774;8.916;2022-08-21T09:52:59;11.80;;;2.40;;
54705;SDS011;40603;48.774;8.916;2022-08-21T09:55:33;5.35;;;2.50;;
54705;SDS011;40603;48.774;8.916;2022-08-21T09:58:19;5.72;;;2.15;;
54705;SDS011;40603;48.774;8.916;2022-08-21T10:00:45;4.20;;;2.42;;
54705;SDS011;40603;48.774;8.916;2022-08-21T10:03:17;9.45;;;2.50;;
54705;SDS011;40603;48.774;8.916;2022-08-21T10:05:55;6.57;;;2.60;;
54705;SDS011;40603;48.774;8.916;2022-08-21T10:08:26;11.07;;;2.97;;
54705;SDS011;40603;48.774;8.916;2022-08-21T10:10:56;8.90;;;3.38;;
54705;SDS011;40603;48.774;8.916;2022-08-21T10:21:59;5.28;;;2.20;;
54705;SDS011;40603;48.774;8.916;2022-08-21T10:29:47;3.88;;;2.30;;
54705;SDS011;40603;48.774;8.916;2022-08-21T10:32:24;5.25;;;2.40;;
54705;SDS011;40603;48.774;8.916;2022-08-21T10:35:07;4.30;;;2.03;;
54705;SDS011;40603;48.774;8.916;2022-08-21T10:37:44;7.00;;;2.25;;
54705;SDS011;40603;48.774;8.916;2022-08-21T10:40:26;4.75;;;2.03;;
54705;SDS011;40603;48.774;8.916;2022-08-21T10:45:51;3.65;;;2.05;;
54705;SDS011;40603;48.774;8.916;2022-08-21T10:48:28;4.03;;;2.05;;
54705;SDS011;40603;48.774;8.916;2022-08-21T10:51:06;6.18;;;1.92;;
54705;SDS011;40603;48.774;8.916;2022-08-21T10:53:50;5.43;;;2.20;;
54705;SDS011;40603;48.774;8.916;2022-08-21T10:56:24;5.53;;;2.25;;
54705;SDS011;40603;48.774;8.916;2022-08-21T11:04:18;6.00;;;2.20;;
54705;SDS011;40603;48.774;8.916;2022-08-21T11:06:46;4.00;;;2.30;;
54705;SDS011;40603;48.774;8.916;2022-08-21T11:09:20;5.90;;;2.38;;
54705;SDS011;40603;48.774;8.916;2022-08-21T11:11:49;5.32;;;2.53;;
54705;SDS011;40603;48.774;8.916;2022-08-21T11:17:30;6.07;;;2.35;;
54705;SDS011;40603;48.774;8.916;2022-08-21T11:19:52;5.22;;;2.15;;
54705;SDS011;40603;48.774;8.916;2022-08-21T11:22:24;6.55;;;2.20;;
54705;SDS011;40603;48.774;8.916;2022-08-21T11:24:57;5.80;;;1.98;;
54705;SDS011;40603;48.774;8.916;2022-08-21T11:27:33;5.03;;;2.20;;
54705;SDS011;40603;48.774;8.916;2022-08-21T11:30:03;4.35;;;1.98;;
54705;SDS011;40603;48.774;8.916;2022-08-21T11:38:03;4.20;;;2.00;;
54705;SDS011;40603;48.774;8.916;2022-08-21T11:40:47;4.50;;;2.40;;
54705;SDS011;40603;48.774;8.916;2022-08-21T11:51:56;5.05;;;2.17;;
54705;SDS011;40603;48.774;8.916;2022-08-21T11:57:20;5.97;;;2.10;;
54705;SDS011;40603;48.774;8.916;2022-08-21T11:59:50;4.53;;;2.22;;
54705;SDS011;40603;48.774;8.916;2022-08-21T12:02:23;13.40;;;3.17;;
54705;SDS011;40603;48.774;8.916;2022-08-21T12:04:57;5.40;;;2.25;;
54705;SDS011;40603;48.774;8.916;2022-08-21T12:07:44;4.10;;;2.10;;
54705;SDS011;40603;48.774;8.916;2022-08-21T12:10:11;2.97;;;1.88;;
54705;SDS011;40603;48.774;8.916;2022-08-21T12:12:39;3.88;;;1.85;;
54705;SDS011;40603;48.774;8.916;2022-08-21T12:17:35;5.15;;;2.42;;
54705;SDS011;40603;48.774;8.916;2022-08-21T12:20:24;5.70;;;1.83;;
54705;SDS011;40603;48.774;8.916;2022-08-21T12:28:46;5.43;;;2.15;;
54705;SDS011;40603;48.774;8.916;2022-08-21T12:31:19;4.53;;;2.15;;
54705;SDS011;40603;48.774;8.916;2022-08-21T12:33:49;3.85;;;2.03;;
54705;SDS011;40603;48.774;8.916;2022-08-21T12:36:18;3.35;;;1.95;;
54705;SDS011;40603;48.774;8.916;2022-08-21T12:38:54;4.43;;;1.92;;
54705;SDS011;40603;48.774;8.916;2022-08-21T12:41:25;3.85;;;2.05;;
54705;SDS011;40603;48.774;8.916;2022-08-21T12:44:01;5.22;;;2.40;;
54705;SDS011;40603;48.774;8.916;2022-08-21T12:46:42;7.07;;;3.00;;
54705;SDS011;40603;48.774;8.916;2022-08-21T12:49:14;4.13;;;2.42;;
54705;SDS011;40603;48.774;8.916;2022-08-21T12:54:07;3.63;;;2.20;;
54705;SDS011;40603;48.774;8.916;2022-08-21T12:56:33;5.15;;;2.38;;
54705;SDS011;40603;48.774;8.916;2022-08-21T12:59:03;5.57;;;2.33;;
54705;SDS011;40603;48.774;8.916;2022-08-21T13:04:11;5.80;;;2.40;;
54705;SDS011;40603;48.774;8.916;2022-08-21T13:06:39;5.30;;;2.30;;
54705;SDS011;40603;48.774;8.916;2022-08-21T13:09:08;4.50;;;2.20;;
54705;SDS011;40603;48.774;8.916;2022-08-21T13:11:36;6.10;;;2.35;;
54705;SDS011;40603;48.774;8.916;2022-08-21T13:14:03;4.47;;;2.38;;
54705;SDS011;40603;48.774;8.916;2022-08-21T13:16:29;5.00;;;2.40;;
54705;SDS011;40603;48.774;8.916;2022-08-21T13:19:02;6.55;;;2.30;;
54705;SDS011;40603;48.774;8.916;2022-08-21T13:21:34;4.97;;;2.17;;
54705;SDS011;40603;48.774;8.916;2022-08-21T13:24:15;7.15;;;2.65;;
54705;SDS011;40603;48.774;8.916;2022-08-21T13:26:45;4.90;;;2.20;;
54705;SDS011;40603;48.774;8.916;2022-08-21T13:29:12;5.88;;;2.40;;
54705;SDS011;40603;48.774;8.916;2022-08-21T13:31:42;3.77;;;2.27;;
54705;SDS011;40603;48.774;8.916;2022-08-21T13:34:12;5.10;;;2.20;;
54705;SDS011;40603;48.774;8.916;2022-08-21T13:36:40;6.07;;;2.78;;
54705;SDS011;40603;48.774;8.916;2022-08-21T13:39:11;5.40;;;2.60;;
54705;SDS011;40603;48.774;8.916;2022-08-21T13:41:38;5.68;;;1.90;;
54705;SDS011;40603;48.774;8.916;2022-08-21T13:44:52;7.80;;;2.40;;
54705;SDS011;40603;48.774;8.916;2022-08-21T13:47:02;5.28;;;2.67;;
54705;SDS011;40603;48.774;8.916;2022-08-21T13:49:31;7.40;;;2.30;;
54705;SDS011;40603;48.774;8.916;2022-08-21T13:51:59;4.50;;;2.13;;
54705;SDS011;40603;48.774;8.916;2022-08-21T13:54:25;7.22;;;2.75;;
54705;SDS011;40603;48.774;8.916;2022-08-21T13:56:53;5.72;;;2.20;;
54705;SDS011;40603;48.774;8.916;2022-08-21T13:59:26;6.13;;;2.47;;
54705;SDS011;40603;48.774;8.916;2022-08-21T14:01:57;4.55;;;2.30;;
54705;SDS011;40603;48.774;8.916;2022-08-21T14:04:35;5.72;;;2.20;;
54705;SDS011;40603;48.774;8.916;2022-08-21T14:07:02;6.75;;;2.63;;
54705;SDS011;40603;48.774;8.916;2022-08-21T14:09:33;7.28;;;2.38;;
54705;SDS011;40603;48.774;8.916;2022-08-21T14:12:01;6.20;;;2.25;;
54705;SDS011;40603;48.774;8.916;2022-08-21T14:14:31;4.07;;;1.92;;
54705;SDS011;40603;48.774;8.916;2022-08-21T14:17:02;6.05;;;2.53;;
54705;SDS011;40603;48.774;8.916;2022-08-21T14:19:40;8.30;;;2.65;;
54705;SDS011;40603;48.774;8.916;2022-08-21T14:24:48;4.93;;;2.43;;
54705;SDS011;40603;48.774;8.916;2022-08-21T14:27:15;4.55;;;2.05;;
54705;SDS011;40603;48.774;8.916;2022-08-21T14:29:43;5.63;;;2.85;;
54705;SDS011;40603;48.774;8.916;2022-08-21T14:32:13;3.85;;;2.30;;
54705;SDS011;40603;48.774;8.916;2022-08-21T14:34:40;3.72;;;2.13;;
54705;SDS011;40603;48.774;8.916;2022-08-21T14:37:05;6.03;;;2.50;;
54705;SDS011;40603;48.774;8.916;2022-08-21T14:39:31;5.32;;;2.33;;
54705;SDS011;40603;48.774;8.916;2022-08-21T14:41:56;6.60;;;2.72;;
54705;SDS011;40603;48.774;8.916;2022-08-21T14:44:23;5.07;;;2.25;;
54705;SDS011;40603;48.774;8.916;2022-08-21T14:46:48;3.63;;;2.35;;
54705;SDS011;40603;48.774;8.916;2022-08-21T14:49:14;4.80;;;2.15;;
54705;SDS011;40603;48.774;8.916;2022-08-21T14:51:39;4.45;;;2.47;;
54705;SDS011;40603;48.774;8.916;2022-08-21T14:54:05;6.80;;;3.10;;
54705;SDS011;40603;48.774;8.916;2022-08-21T14:56:31;5.82;;;1.98;;
54705;SDS011;40603;48.774;8.916;2022-08-21T14:58:58;4.18;;;2.38;;
54705;SDS011;40603;48.774;8.916;2022-08-21T15:01:27;4.25;;;2.20;;
54705;SDS011;40603;48.774;8.916;2022-08-21T15:03:52;6.22;;;2.45;;
54705;SDS011;40603;48.774;8.916;2022-08-21T15:06:18;4.20;;;2.60;;
54705;SDS011;40603;48.774;8.916;2022-08-21T15:08:45;6.18;;;2.40;;
54705;SDS011;40603;48.774;8.916;2022-08-21T15:11:11;7.95;;;2.40;;
54705;SDS011;40603;48.774;8.916;2022-08-21T15:13:39;7.40;;;2.33;;
54705;SDS011;40603;48.774;8.916;2022-08-21T15:16:04;5.95;;;2.40;;
54705;SDS011;40603;48.774;8.916;2022-08-21T15:18:30;5.03;;;2.03;;
54705;SDS011;40603;48.774;8.916;2022-08-21T15:20:55;4.10;;;2.08;;
54705;SDS011;40603;48.774;8.916;2022-08-21T15:23:21;6.97;;;2.08;;
54705;SDS011;40603;48.774;8.916;2022-08-21T15:25:47;4.60;;;2.30;;
54705;SDS011;40603;48.774;8.916;2022-08-21T15:28:13;6.28;;;2.50;;
54705;SDS011;40603;48.774;8.916;2022-08-21T15:30:39;5.20;;;2.20;;
54705;SDS011;40603;48.774;8.916;2022-08-21T15:33:06;4.47;;;1.80;;
54705;SDS011;40603;48.774;8.916;2022-08-21T15:35:31;3.47;;;2.17;;
54705;SDS011;40603;48.774;8.916;2022-08-21T15:37:57;5.95;;;2.85;;
54705;SDS011;40603;48.774;8.916;2022-08-21T15:40:22;4.78;;;1.77;;
54705;SDS011;40603;48.774;8.916;2022-08-21T15:42:48;5.55;;;2.00;;
54705;SDS011;40603;48.774;8.916;2022-08-21T15:45:17;5.33;;;2.10;;